createdAt,value
2019-01-17T00:01:23.443Z,99710.39
2019-01-17T00:04:11.538Z,99709.11
2019-01-17T00:06:47.289Z,99712.58
2019-01-17T00:09:20.639Z,99717.73
2019-01-17T00:12:11.028Z,99716.38
2019-01-17T00:14:47.430Z,99714.22
2019-01-17T00:17:23.525Z,99713.38
2019-01-17T00:20:12.261Z,99713.84
2019-01-17T00:22:42.599Z,99716.86
2019-01-17T00:25:32.093Z,99722.46
2019-01-17T00:28:19.267Z,99722.04
2019-01-17T00:31:07.959Z,99722.02
2019-01-17T00:33:40.064Z,99727.07
2019-01-17T00:36:10.390Z,99727.05
2019-01-17T00:38:40.656Z,99720.67
2019-01-17T00:41:16.860Z,99733.17
2019-01-17T00:43:47.081Z,99735.32
2019-01-17T00:46:18.199Z,99743.05
2019-01-17T00:48:48.420Z,99740.45
2019-01-17T00:51:37.137Z,99747.28
2019-01-17T00:54:09.983Z,99753.34
2019-01-17T00:56:56.484Z,99753.72
2019-01-17T00:59:38.951Z,99751.98
2019-01-17T01:02:27.292Z,99742.94
2019-01-17T01:04:58.930Z,99745.02
2019-01-17T01:07:38.541Z,99747.21
2019-01-17T01:10:17.569Z,99745.50
2019-01-17T01:12:49.309Z,99745.01
2019-01-17T01:15:37.098Z,99745.34
2019-01-17T01:18:11.758Z,99744.80
2019-01-17T01:20:42.182Z,99748.59
2019-01-17T01:23:30.616Z,99750.16
2019-01-17T01:26:06.878Z,99750.53
2019-01-17T01:28:37.261Z,99739.34
2019-01-17T01:31:16.579Z,99735.55
2019-01-17T01:34:00.418Z,99737.72
2019-01-17T01:36:30.716Z,99733.95
2019-01-17T01:39:01.055Z,99734.45
2019-01-17T01:41:32.496Z,99728.89
2019-01-17T01:44:22.381Z,99728.02
2019-01-17T01:46:52.731Z,99724.16
2019-01-17T01:49:35.394Z,99730.96
2019-01-17T01:52:05.761Z,99730.99
2019-01-17T01:54:34.357Z,99730.60
2019-01-17T01:57:04.099Z,99730.67
2019-01-17T01:59:32.688Z,99728.60
2019-01-17T02:02:01.309Z,99722.16
2019-01-17T02:04:30.047Z,99716.24
2019-01-17T02:06:58.786Z,99711.14
2019-01-17T02:09:27.406Z,99712.46
2019-01-17T02:11:56.081Z,99711.19
2019-01-17T02:14:25.014Z,99714.62
2019-01-17T02:16:53.846Z,99721.04
2019-01-17T02:19:22.449Z,99716.23
2019-01-17T02:21:51.116Z,99706.75
2019-01-17T02:24:19.593Z,99710.19
2019-01-17T02:26:48.256Z,99710.59
2019-01-17T02:29:16.929Z,99705.44
2019-01-17T02:31:45.928Z,99713.99
2019-01-17T02:34:14.478Z,99712.73
2019-01-17T02:36:43.875Z,99715.74
2019-01-17T02:39:12.492Z,99718.82
2019-01-17T02:41:41.096Z,99719.70
2019-01-17T02:44:09.718Z,99714.56
2019-01-17T02:46:38.279Z,99711.98
2019-01-17T02:49:06.905Z,99709.44
2019-01-17T02:51:35.445Z,99710.83
2019-01-17T02:54:04.295Z,99710.02
2019-01-17T02:56:32.905Z,99713.45
2019-01-17T02:59:01.515Z,99723.77
2019-01-17T03:01:30.523Z,99716.44
2019-01-17T03:03:59.126Z,99715.93
2019-01-17T03:06:30.892Z,99717.20
2019-01-17T03:08:59.560Z,99715.03
2019-01-17T03:11:28.218Z,99722.39
2019-01-17T03:13:56.878Z,99715.14
2019-01-17T03:16:25.472Z,99718.17
2019-01-17T03:18:54.134Z,99728.11
2019-01-17T03:21:22.791Z,99722.95
2019-01-17T03:23:51.456Z,99723.80
2019-01-17T03:26:24.389Z,99723.78
2019-01-17T03:28:52.983Z,99717.75
2019-01-17T03:31:22.884Z,99710.42
2019-01-17T03:33:52.009Z,99716.45
2019-01-17T03:36:20.617Z,99706.55
2019-01-17T03:38:49.278Z,99711.30
2019-01-17T03:41:17.961Z,99705.27
2019-01-17T03:43:46.614Z,99702.25
2019-01-17T03:46:15.341Z,99705.29
2019-01-17T03:48:44.199Z,99707.45
2019-01-17T03:51:12.843Z,99704.00
2019-01-17T03:53:42.943Z,99704.02
2019-01-17T03:56:11.977Z,99700.12
2019-01-17T03:58:40.595Z,99694.09
2019-01-17T04:01:09.227Z,99699.69
2019-01-17T04:03:37.783Z,99695.81
2019-01-17T04:06:06.394Z,99697.55
2019-01-17T04:08:35.059Z,99691.92
2019-01-17T04:11:03.678Z,99696.66
2019-01-17T04:13:32.224Z,99688.01
2019-01-17T04:16:00.900Z,99682.80
2019-01-17T04:18:35.249Z,99671.14
2019-01-17T04:21:03.912Z,99666.80
2019-01-17T04:23:32.584Z,99675.84
2019-01-17T04:26:01.131Z,99678.02
2019-01-17T04:28:29.786Z,99681.41
2019-01-17T04:30:58.463Z,99680.13
2019-01-17T04:33:33.164Z,99679.74
2019-01-17T04:36:03.559Z,99689.72
2019-01-17T04:38:32.120Z,99703.98
2019-01-17T04:41:00.753Z,99703.13
2019-01-17T04:43:29.410Z,99691.92
2019-01-17T04:46:04.100Z,99693.63
2019-01-17T04:48:32.834Z,99691.45
2019-01-17T04:51:02.017Z,99690.98
2019-01-17T04:53:30.589Z,99686.67
2019-01-17T04:56:01.927Z,99687.15
2019-01-17T04:58:30.571Z,99692.34
2019-01-17T05:00:59.125Z,99694.08
2019-01-17T05:03:27.787Z,99694.08
2019-01-17T05:05:56.403Z,99688.49
2019-01-17T05:08:25.029Z,99687.20
2019-01-17T05:10:53.646Z,99693.67
2019-01-17T05:13:22.198Z,99702.28
2019-01-17T05:15:50.855Z,99700.11
2019-01-17T05:18:19.472Z,99697.97
2019-01-17T05:20:48.286Z,99704.41
2019-01-17T05:23:23.282Z,99710.84
2019-01-17T05:25:51.879Z,99718.97
2019-01-17T05:28:26.128Z,99706.47
2019-01-17T05:30:54.864Z,99704.27
2019-01-17T05:33:23.571Z,99704.72
2019-01-17T05:35:55.724Z,99714.55
2019-01-17T05:38:24.466Z,99714.01
2019-01-17T05:40:54.117Z,99710.89
2019-01-17T05:43:22.755Z,99712.61
2019-01-17T05:45:51.362Z,99718.27
2019-01-17T05:48:20.314Z,99721.30
2019-01-17T05:50:48.952Z,99716.42
2019-01-17T05:53:19.151Z,99724.50
2019-01-17T05:55:47.760Z,99732.11
2019-01-17T05:58:16.412Z,99731.12
2019-01-17T06:00:45.015Z,99738.39
2019-01-17T06:03:19.887Z,99741.77
2019-01-17T06:05:52.765Z,99747.84
2019-01-17T06:08:24.371Z,99736.03
2019-01-17T06:10:53.501Z,99730.16
2019-01-17T06:13:22.194Z,99729.45
2019-01-17T06:15:51.708Z,99734.81
2019-01-17T06:18:20.276Z,99729.76
2019-01-17T06:20:52.025Z,99725.06
2019-01-17T06:23:20.669Z,99725.08
2019-01-17T06:25:52.132Z,99726.81
2019-01-17T06:28:20.804Z,99717.78
2019-01-17T06:30:52.124Z,99716.49
2019-01-17T06:33:20.802Z,99726.37
2019-01-17T06:35:49.430Z,99733.21
2019-01-17T06:38:22.286Z,99729.30
2019-01-17T06:40:50.914Z,99735.27
2019-01-17T06:43:19.563Z,99732.19
2019-01-17T06:45:48.936Z,99732.22
2019-01-17T06:48:17.601Z,99727.56
2019-01-17T06:50:46.228Z,99731.83
2019-01-17T06:53:15.328Z,99736.08
2019-01-17T06:55:44.008Z,99740.81
2019-01-17T06:58:12.553Z,99742.56
2019-01-17T07:00:43.995Z,99755.09
2019-01-17T07:03:12.620Z,99758.95
2019-01-17T07:05:41.286Z,99755.06
2019-01-17T07:08:09.970Z,99763.72
2019-01-17T07:10:42.717Z,99762.05
2019-01-17T07:13:11.376Z,99767.30
2019-01-17T07:15:40.007Z,99766.89
2019-01-17T07:18:08.680Z,99770.75
2019-01-17T07:20:37.303Z,99776.38
2019-01-17T07:23:09.772Z,99781.56
2019-01-17T07:25:41.348Z,99774.03
2019-01-17T07:28:13.156Z,99768.09
2019-01-17T07:30:41.777Z,99771.44
2019-01-17T07:33:10.406Z,99767.27
2019-01-17T07:35:39.065Z,99771.44
2019-01-17T07:38:07.816Z,99768.62
2019-01-17T07:40:39.414Z,99761.12
2019-01-17T07:43:08.041Z,99759.98
2019-01-17T07:45:36.734Z,99775.73
2019-01-17T07:48:08.068Z,99761.27
2019-01-17T07:50:36.682Z,99764.22
2019-01-17T07:53:08.360Z,99768.35
2019-01-17T07:55:37.041Z,99772.63
2019-01-17T07:58:10.616Z,99772.13
2019-01-17T08:00:39.594Z,99780.48
2019-01-17T08:03:08.638Z,99783.76
2019-01-17T08:05:38.907Z,99775.73
2019-01-17T08:08:07.591Z,99769.03
2019-01-17T08:10:36.179Z,99764.42
2019-01-17T08:13:07.023Z,99761.29
2019-01-17T08:15:35.729Z,99755.23
2019-01-17T08:18:37.720Z,99751.80
2019-01-17T08:21:31.689Z,99759.69
2019-01-17T08:24:36.523Z,99765.61
2019-01-17T08:27:24.261Z,99762.19
2019-01-17T08:30:28.993Z,99762.19
2019-01-17T08:33:17.135Z,99764.93
2019-01-17T08:36:21.748Z,99749.17
2019-01-17T08:39:09.814Z,99754.78
2019-01-17T08:42:17.864Z,99761.63
2019-01-17T08:45:05.759Z,99765.88
2019-01-17T08:48:10.835Z,99764.66
2019-01-17T08:51:01.859Z,99764.31
2019-01-17T08:54:09.612Z,99768.73
2019-01-17T08:57:14.158Z,99771.92
2019-01-17T09:00:18.873Z,99766.48
2019-01-17T09:03:23.634Z,99769.77
2019-01-17T09:06:11.516Z,99767.54
2019-01-17T09:09:16.329Z,99768.16
2019-01-17T09:12:07.227Z,99759.25
2019-01-17T09:15:11.812Z,99762.88
2019-01-17T09:18:00.164Z,99753.30
2019-01-17T09:21:05.161Z,99759.23
2019-01-17T09:23:53.459Z,99758.63
2019-01-17T09:26:58.390Z,99755.59
2019-01-17T09:30:02.872Z,99763.98
2019-01-17T09:32:50.763Z,99756.95
2019-01-17T09:35:55.581Z,99753.03
2019-01-17T09:38:43.747Z,99748.52
2019-01-17T09:41:48.570Z,99743.51
2019-01-17T09:44:36.294Z,99734.27
2019-01-17T09:47:41.148Z,99729.17
2019-01-17T09:50:29.106Z,99730.87
2019-01-17T09:53:34.054Z,99722.24
2019-01-17T09:56:25.229Z,99719.40
2019-01-17T09:59:29.711Z,99721.40
2019-01-17T10:02:18.502Z,99717.03
2019-01-17T10:05:23.103Z,99711.82
2019-01-17T10:08:11.589Z,99710.53
2019-01-17T10:11:16.547Z,99700.07
2019-01-17T10:14:04.275Z,99692.64
2019-01-17T10:17:09.561Z,99689.27
2019-01-17T10:19:57.806Z,99681.27
2019-01-17T10:23:02.417Z,99678.94
2019-01-17T10:26:07.601Z,99667.88
2019-01-17T10:28:56.514Z,99660.91
2019-01-17T10:32:01.086Z,99660.69
2019-01-17T10:35:05.441Z,99661.66
2019-01-17T10:38:10.111Z,99654.86
2019-01-17T10:41:15.098Z,99649.27
2019-01-17T10:44:20.007Z,99645.28
2019-01-17T10:47:10.426Z,99636.85
2019-01-17T10:50:15.627Z,99633.05
2019-01-17T10:53:03.455Z,99628.91
2019-01-17T10:56:08.200Z,99622.50
2019-01-17T10:59:12.835Z,99614.34
2019-01-17T11:02:01.128Z,99607.28
2019-01-17T11:05:09.295Z,99606.86
2019-01-17T11:08:13.743Z,99602.52
2019-01-17T11:11:18.543Z,99595.27
2019-01-17T11:14:06.604Z,99593.86
2019-01-17T11:17:11.388Z,99588.66
2019-01-17T11:20:16.489Z,99583.89
2019-01-17T11:23:04.364Z,99580.15
2019-01-17T11:26:08.939Z,99580.28
2019-01-17T11:29:13.784Z,99574.19
2019-01-17T11:32:01.702Z,99571.72
2019-01-17T11:35:06.506Z,99558.98
2019-01-17T11:38:11.575Z,99554.49
2019-01-17T11:41:16.388Z,99542.59
2019-01-17T11:44:21.162Z,99543.89
2019-01-17T11:47:09.172Z,99540.62
2019-01-17T11:50:13.814Z,99533.88
2019-01-17T11:53:18.434Z,99530.31
2019-01-17T11:56:23.247Z,99524.31
2019-01-17T11:59:28.821Z,99525.22
2019-01-17T12:02:39.004Z,99528.16
2019-01-17T12:05:25.873Z,99525.97
2019-01-17T12:08:30.584Z,99522.97
2019-01-17T12:11:18.731Z,99516.81
2019-01-17T12:14:24.176Z,99516.41
2019-01-17T12:17:13.556Z,99508.50
2019-01-17T12:20:18.143Z,99506.64
2019-01-17T12:23:06.265Z,99508.19
2019-01-17T12:26:11.223Z,99511.05
2019-01-17T12:28:59.220Z,99506.65
2019-01-17T12:32:03.892Z,99503.13
2019-01-17T12:34:52.107Z,99502.73
2019-01-17T12:37:56.828Z,99504.19
2019-01-17T12:40:47.514Z,99500.84
2019-01-17T12:43:52.337Z,99495.30
2019-01-17T12:46:43.308Z,99501.18
2019-01-17T12:49:47.766Z,99494.20
2019-01-17T12:52:52.294Z,99485.72
2019-01-17T12:55:40.293Z,99480.99
2019-01-17T12:58:44.897Z,99486.48
2019-01-17T13:01:33.249Z,99482.75
2019-01-17T13:04:37.862Z,99480.56
2019-01-17T13:07:25.591Z,99481.22
2019-01-17T13:10:30.221Z,99478.54
2019-01-17T13:13:18.206Z,99482.13
2019-01-17T13:16:22.780Z,99476.73
2019-01-17T13:19:10.793Z,99474.39
2019-01-17T13:22:15.582Z,99473.86
2019-01-17T13:25:04.150Z,99470.57
2019-01-17T13:28:09.380Z,99465.09
2019-01-17T13:30:57.390Z,99465.64
2019-01-17T13:34:01.872Z,99465.48
2019-01-17T13:36:49.928Z,99467.65
2019-01-17T13:39:54.859Z,99466.79
2019-01-17T13:42:43.241Z,99463.27
2019-01-17T13:45:47.987Z,99471.56
2019-01-17T13:48:16.612Z,99462.87
2019-01-17T13:50:48.092Z,99462.77
2019-01-17T13:53:16.719Z,99460.27
2019-01-17T13:55:45.313Z,99458.20
2019-01-17T13:58:16.936Z,99462.57
2019-01-17T14:00:45.509Z,99457.16
2019-01-17T14:03:14.122Z,99460.23
2019-01-17T14:05:42.915Z,99462.33
2019-01-17T14:08:11.577Z,99460.86
2019-01-17T14:10:43.227Z,99465.16
2019-01-17T14:13:11.970Z,99458.88
2019-01-17T14:15:40.651Z,99459.27
2019-01-17T14:18:14.659Z,99461.55
2019-01-17T14:20:43.335Z,99461.64
2019-01-17T14:23:12.066Z,99460.52
2019-01-17T14:25:40.776Z,99456.01
2019-01-17T14:28:12.428Z,99457.82
2019-01-17T14:30:41.562Z,99461.65
2019-01-17T14:33:10.235Z,99456.23
2019-01-17T14:35:38.871Z,99457.69
2019-01-17T14:38:13.509Z,99463.73
2019-01-17T14:40:42.139Z,99458.56
2019-01-17T14:43:10.747Z,99467.72
2019-01-17T14:45:39.378Z,99468.02
2019-01-17T14:48:08.060Z,99466.70
2019-01-17T14:50:36.704Z,99477.46
2019-01-17T14:53:05.939Z,99472.65
2019-01-17T14:55:34.574Z,99475.22
2019-01-17T14:58:03.257Z,99482.19
2019-01-17T15:00:33.426Z,99487.06
2019-01-17T15:03:02.552Z,99491.65
2019-01-17T15:05:31.285Z,99486.50
2019-01-17T15:07:59.874Z,99484.74
2019-01-17T15:10:31.644Z,99492.70
2019-01-17T15:13:00.275Z,99500.47
2019-01-17T15:15:29.667Z,99504.01
2019-01-17T15:17:58.564Z,99508.42
2019-01-17T15:20:27.204Z,99511.05
2019-01-17T15:22:55.875Z,99511.64
2019-01-17T15:25:24.602Z,99513.51
2019-01-17T15:27:53.910Z,99514.80
2019-01-17T15:30:24.939Z,99513.72
2019-01-17T15:32:53.768Z,99518.69
2019-01-17T15:35:25.395Z,99522.77
2019-01-17T15:37:54.024Z,99525.61
2019-01-17T15:40:30.273Z,99524.81
2019-01-17T15:42:58.830Z,99519.75
2019-01-17T15:45:27.526Z,99528.22
2019-01-17T15:47:59.226Z,99536.44
2019-01-17T15:50:27.893Z,99537.13
2019-01-17T15:52:56.523Z,99537.95
2019-01-17T15:55:28.373Z,99545.73
2019-01-17T15:57:56.929Z,99544.37
2019-01-17T16:00:27.881Z,99546.77
2019-01-17T16:02:56.876Z,99546.97
2019-01-17T16:05:25.606Z,99552.30
2019-01-17T16:07:56.938Z,99552.12
2019-01-17T16:10:28.290Z,99553.52
2019-01-17T16:12:56.874Z,99560.14
2019-01-17T16:15:29.099Z,99561.93
2019-01-17T16:17:57.862Z,99566.28
2019-01-17T16:20:26.488Z,99569.42
2019-01-17T16:22:55.250Z,99568.16
2019-01-17T16:25:23.939Z,99562.59
2019-01-17T16:27:55.334Z,99570.03
2019-01-17T16:30:33.815Z,99562.28
2019-01-17T16:33:08.245Z,99564.07
2019-01-17T16:35:39.934Z,99565.89
2019-01-17T16:38:08.568Z,99564.39
2019-01-17T16:40:37.314Z,99570.31
2019-01-17T16:43:05.984Z,99568.17
2019-01-17T16:45:35.544Z,99573.11
2019-01-17T16:48:07.570Z,99571.55
2019-01-17T16:50:38.974Z,99574.85
2019-01-17T16:53:07.594Z,99566.24
2019-01-17T16:55:36.269Z,99570.55
2019-01-17T16:58:07.971Z,99566.66
2019-01-17T17:00:38.995Z,99565.39
2019-01-17T17:03:10.748Z,99564.20
2019-01-17T17:05:42.432Z,99569.54
2019-01-17T17:08:12.285Z,99564.80
2019-01-17T17:10:41.130Z,99578.25
2019-01-17T17:13:09.771Z,99569.67
2019-01-17T17:15:39.092Z,99570.22
2019-01-17T17:18:08.648Z,99568.16
2019-01-17T17:20:37.272Z,99573.91
2019-01-17T17:23:05.937Z,99576.98
2019-01-17T17:25:34.629Z,99576.09
2019-01-17T17:28:07.578Z,99573.97
2019-01-17T17:30:39.003Z,99582.23
2019-01-17T17:33:07.665Z,99580.95
2019-01-17T17:35:36.365Z,99576.27
2019-01-17T17:38:05.429Z,99582.48
2019-01-17T17:40:34.041Z,99583.73
2019-01-17T17:43:09.938Z,99587.16
2019-01-17T17:45:38.503Z,99585.52
2019-01-17T17:48:07.182Z,99589.91
2019-01-17T17:50:35.660Z,99593.89
2019-01-17T17:53:04.323Z,99599.33
2019-01-17T17:55:36.878Z,99595.67
2019-01-17T17:58:05.602Z,99601.80
2019-01-17T18:00:35.918Z,99600.94
2019-01-17T18:03:04.536Z,99603.19
2019-01-17T18:05:33.278Z,99604.05
2019-01-17T18:08:01.940Z,99610.55
2019-01-17T18:10:30.570Z,99611.84
2019-01-17T18:12:59.279Z,99614.82
2019-01-17T18:15:30.732Z,99620.75
2019-01-17T18:17:59.458Z,99621.84
2019-01-17T18:20:28.137Z,99619.23
2019-01-17T18:22:57.168Z,99618.82
2019-01-17T18:25:25.844Z,99617.61
2019-01-17T18:27:54.486Z,99621.91
2019-01-17T18:30:32.441Z,99624.05
2019-01-17T18:33:01.074Z,99624.44
2019-01-17T18:35:29.799Z,99623.45
2019-01-17T18:38:02.556Z,99621.20
2019-01-17T18:40:37.632Z,99636.61
2019-01-17T18:43:11.692Z,99635.69
2019-01-17T18:45:43.139Z,99643.30
2019-01-17T18:48:12.455Z,99647.92
2019-01-17T18:50:41.246Z,99651.23
2019-01-17T18:53:09.951Z,99655.83
2019-01-17T18:55:42.115Z,99655.30
2019-01-17T18:58:15.497Z,99656.61
2019-01-17T19:00:42.148Z,99659.72
2019-01-17T19:03:11.842Z,99670.35
2019-01-17T19:05:40.602Z,99667.52
2019-01-17T19:08:10.403Z,99674.06
2019-01-17T19:10:39.169Z,99668.59
2019-01-17T19:13:09.466Z,99673.34
2019-01-17T19:15:38.170Z,99677.67
2019-01-17T19:18:11.302Z,99684.83
2019-01-17T19:20:40.729Z,99679.88
2019-01-17T19:23:14.027Z,99684.41
2019-01-17T19:25:51.717Z,99686.67
2019-01-17T19:28:28.450Z,99686.77
2019-01-17T19:30:57.188Z,99685.22
2019-01-17T19:33:27.904Z,99681.87
2019-01-17T19:35:56.575Z,99682.80
2019-01-17T19:38:25.924Z,99691.34
2019-01-17T19:40:54.631Z,99684.20
2019-01-17T19:43:25.929Z,99677.31
2019-01-17T19:45:58.692Z,99685.56
2019-01-17T19:48:29.163Z,99687.92
2019-01-17T19:50:57.921Z,99689.16
2019-01-17T19:53:28.130Z,99694.77
2019-01-17T19:55:59.639Z,99697.69
2019-01-17T19:58:30.889Z,99697.85
2019-01-17T20:00:59.691Z,99709.05
2019-01-17T20:03:28.389Z,99707.36
2019-01-17T20:06:01.306Z,99705.99
2019-01-17T20:08:30.053Z,99708.91
2019-01-17T20:10:58.778Z,99703.89
2019-01-17T20:13:31.450Z,99700.97
2019-01-17T20:16:00.252Z,99700.58
2019-01-17T20:18:29.019Z,99703.15
2019-01-17T20:20:57.784Z,99701.79
2019-01-17T20:23:26.493Z,99690.25
2019-01-17T20:25:55.228Z,99695.39
2019-01-17T20:28:23.948Z,99688.11
2019-01-17T20:30:52.808Z,99693.13
2019-01-17T20:33:24.235Z,99687.98
2019-01-17T20:35:56.322Z,99689.66
2019-01-17T20:38:28.097Z,99694.38
2019-01-17T20:41:00.802Z,99692.28
2019-01-17T20:43:35.644Z,99693.17
2019-01-17T20:46:04.451Z,99688.06
2019-01-17T20:48:34.636Z,99687.56
2019-01-17T20:51:03.378Z,99684.48
2019-01-17T20:53:32.088Z,99688.69
2019-01-17T20:56:02.173Z,99682.26
2019-01-17T20:58:32.977Z,99687.83
2019-01-17T21:01:18.176Z,99690.19
2019-01-17T21:03:48.210Z,99690.48
2019-01-17T21:06:16.837Z,99687.52
2019-01-17T21:08:51.794Z,99683.16
2019-01-17T21:11:27.790Z,99695.06
2019-01-17T21:13:56.471Z,99692.48
2019-01-17T21:16:25.104Z,99700.16
2019-01-17T21:18:53.810Z,99700.92
2019-01-17T21:21:22.414Z,99694.02
2019-01-17T21:23:50.963Z,99692.72
2019-01-17T21:26:19.524Z,99688.87
2019-01-17T21:28:49.201Z,99685.41
2019-01-17T21:31:18.640Z,99690.77
2019-01-17T21:33:50.019Z,99694.29
2019-01-17T21:36:18.641Z,99687.44
2019-01-17T21:38:47.316Z,99685.67
2019-01-17T21:41:15.878Z,99689.81
2019-01-17T21:43:44.476Z,99684.62
2019-01-17T21:46:13.107Z,99683.20
2019-01-17T21:48:41.694Z,99678.86
2019-01-17T21:51:10.376Z,99682.61
2019-01-17T21:53:45.753Z,99685.06
2019-01-17T21:56:14.529Z,99682.07
2019-01-17T21:58:43.151Z,99675.17
2019-01-17T22:01:11.802Z,99675.23
2019-01-17T22:03:53.887Z,99670.08
2019-01-17T22:06:22.617Z,99671.27
2019-01-17T22:08:51.230Z,99678.06
2019-01-17T22:11:21.346Z,99679.29
2019-01-17T22:13:50.016Z,99674.63
2019-01-17T22:16:18.664Z,99672.44
2019-01-17T22:18:47.326Z,99671.03
2019-01-17T22:21:15.953Z,99669.91
2019-01-17T22:23:44.652Z,99670.40
2019-01-17T22:26:13.276Z,99666.13
2019-01-17T22:28:41.926Z,99651.05
2019-01-17T22:31:10.567Z,99656.33
2019-01-17T22:33:39.124Z,99660.82
2019-01-17T22:36:07.791Z,99657.23
2019-01-17T22:38:36.465Z,99657.98
2019-01-17T22:41:05.319Z,99655.66
2019-01-17T22:43:33.953Z,99662.70
2019-01-17T22:46:02.503Z,99657.30
2019-01-17T22:48:42.908Z,99649.98
2019-01-17T22:51:17.471Z,99654.08
2019-01-17T22:53:46.986Z,99653.34
2019-01-17T22:56:15.760Z,99658.62
2019-01-17T22:58:44.404Z,99655.81
2019-01-17T23:01:22.136Z,99658.48
2019-01-17T23:03:50.832Z,99649.52
2019-01-17T23:06:19.486Z,99651.27
2019-01-17T23:08:54.264Z,99654.09
2019-01-17T23:11:29.374Z,99658.36
2019-01-17T23:13:53.314Z,99657.82
2019-01-17T23:16:25.442Z,99651.03
2019-01-17T23:18:54.130Z,99648.83
2019-01-17T23:21:22.752Z,99654.89
2019-01-17T23:23:51.419Z,99655.72
2019-01-17T23:26:23.954Z,99649.20
2019-01-17T23:28:52.650Z,99636.55
2019-01-17T23:31:21.297Z,99640.77
2019-01-17T23:33:56.045Z,99637.78
2019-01-17T23:36:24.779Z,99644.69
2019-01-17T23:39:01.808Z,99642.18
2019-01-17T23:41:30.447Z,99638.39
2019-01-17T23:43:59.239Z,99649.62
2019-01-17T23:46:35.299Z,99646.22
2019-01-17T23:49:18.100Z,99645.00
2019-01-17T23:51:46.757Z,99648.41
2019-01-17T23:54:22.976Z,99641.45
2019-01-17T23:56:51.637Z,99632.00
2019-01-17T23:59:22.715Z,99641.02
